Time;durP1;ratioP1;P1;durP2;ratioP2;P2;SDS_P1;SDS_P2;PMS_P1;PMS_P2;Temp;Humidity;BMP_temperature;BMP_pressure;BME280_temperature;BME280_humidity;BME280_pressure;Samples;Min_cycle;Max_cycle;Signal;HPM_P1;HPM_P2
2024/02/20 00:01:39;;;;;;;48.65;7.75;;;;;;;;;;5072374;28;20028;-82
2024/02/20 00:04:07;;;;;;;40.03;5.95;;;;;;;;;;5072611;28;20431;-82
2024/02/20 00:06:35;;;;;;;38.95;6.80;;;;;;;;;;5072877;28;20277;-83
2024/02/20 00:09:01;;;;;;;35.75;6.80;;;;;;;;;;5073290;28;20020;-83
2024/02/20 00:11:28;;;;;;;47.70;8.52;;;;;;;;;;5073079;28;20036;-82
2024/02/20 00:13:55;;;;;;;42.70;7.50;;;;;;;;;;5073254;28;20042;-82
2024/02/20 00:16:21;;;;;;;35.03;5.97;;;;;;;;;;5073452;28;20067;-83
2024/02/20 00:18:48;;;;;;;53.67;8.20;;;;;;;;;;5072977;28;20035;-83
2024/02/20 00:21:15;;;;;;;30.88;7.07;;;;;;;;;;5073311;28;20116;-83
2024/02/20 00:23:41;;;;;;;48.25;8.75;;;;;;;;;;5073450;28;20048;-83
2024/02/20 00:26:08;;;;;;;37.83;7.38;;;;;;;;;;5073136;28;20056;-84
2024/02/20 00:28:40;;;;;;;39.42;6.50;;;;;;;;;;5072871;28;20024;-80
2024/02/20 00:31:06;;;;;;;35.30;7.55;;;;;;;;;;5072997;28;20074;-83
2024/02/20 00:33:32;;;;;;;38.70;7.47;;;;;;;;;;5074483;28;20029;-84
2024/02/20 00:35:58;;;;;;;44.75;7.50;;;;;;;;;;5072694;28;20535;-85
2024/02/20 00:38:24;;;;;;;48.05;8.48;;;;;;;;;;5072288;28;20357;-81
2024/02/20 00:40:50;;;;;;;39.95;6.57;;;;;;;;;;5073297;28;20025;-81
2024/02/20 00:43:16;;;;;;;34.28;6.78;;;;;;;;;;5072030;28;20031;-82
2024/02/20 00:45:44;;;;;;;39.08;6.82;;;;;;;;;;5072121;28;20031;-82
2024/02/20 00:48:10;;;;;;;35.50;5.97;;;;;;;;;;5074226;28;20024;-82
2024/02/20 00:50:38;;;;;;;49.17;9.18;;;;;;;;;;5074492;28;20028;-81
2024/02/20 00:53:04;;;;;;;39.45;6.65;;;;;;;;;;5073420;28;20020;-80
2024/02/20 00:55:30;;;;;;;43.53;7.65;;;;;;;;;;5071920;28;20020;-79
2024/02/20 00:57:58;;;;;;;42.75;6.18;;;;;;;;;;5072061;28;20021;-79
2024/02/20 01:00:24;;;;;;;43.30;6.72;;;;;;;;;;5071837;28;20054;-80
2024/02/20 01:02:50;;;;;;;41.83;7.30;;;;;;;;;;5071477;28;20116;-79
2024/02/20 01:05:16;;;;;;;42.28;7.78;;;;;;;;;;5072924;28;20025;-79
2024/02/20 01:07:42;;;;;;;28.65;5.65;;;;;;;;;;5071494;28;20049;-80
2024/02/20 01:10:08;;;;;;;29.35;6.13;;;;;;;;;;5072034;28;20025;-80
2024/02/20 01:12:35;;;;;;;34.42;7.35;;;;;;;;;;5071948;28;20021;-80
2024/02/20 01:15:02;;;;;;;32.15;6.35;;;;;;;;;;5071362;28;20095;-81
2024/02/20 01:17:28;;;;;;;30.83;5.35;;;;;;;;;;5071712;28;20376;-80
2024/02/20 01:19:54;;;;;;;44.05;6.38;;;;;;;;;;5071054;28;20028;-80
2024/02/20 01:22:20;;;;;;;44.55;7.32;;;;;;;;;;5072004;28;20046;-81
2024/02/20 01:24:46;;;;;;;42.53;6.38;;;;;;;;;;5075561;28;20031;-81
2024/02/20 01:27:12;;;;;;;45.85;7.93;;;;;;;;;;5075753;28;20024;-82
2024/02/20 01:29:38;;;;;;;46.50;6.70;;;;;;;;;;5075602;28;20075;-82
2024/02/20 01:32:04;;;;;;;44.05;7.05;;;;;;;;;;5075686;28;20106;-82
2024/02/20 01:34:31;;;;;;;39.10;7.45;;;;;;;;;;5075757;28;20070;-81
2024/02/20 01:36:57;;;;;;;43.00;5.65;;;;;;;;;;5075088;28;20020;-78
2024/02/20 01:39:23;;;;;;;44.65;6.22;;;;;;;;;;5075040;28;20040;-78
2024/02/20 01:41:49;;;;;;;28.92;6.55;;;;;;;;;;5074620;28;20028;-79
2024/02/20 01:44:15;;;;;;;37.78;5.75;;;;;;;;;;5074812;28;20075;-84
2024/02/20 01:46:41;;;;;;;33.42;6.35;;;;;;;;;;5075769;28;20116;-83
2024/02/20 01:49:08;;;;;;;36.72;6.85;;;;;;;;;;5075470;28;20394;-83
2024/02/20 01:51:34;;;;;;;36.70;7.50;;;;;;;;;;5075294;28;20048;-83
2024/02/20 01:54:03;;;;;;;43.13;6.03;;;;;;;;;;5075518;28;20437;-84
2024/02/20 01:56:29;;;;;;;37.22;7.30;;;;;;;;;;5075201;28;20024;-80
2024/02/20 01:58:56;;;;;;;40.95;6.63;;;;;;;;;;5076257;28;20048;-80
2024/02/20 02:01:25;;;;;;;38.80;7.97;;;;;;;;;;5074882;28;20456;-80
2024/02/20 02:03:52;;;;;;;45.65;6.47;;;;;;;;;;5075615;28;20024;-80
2024/02/20 02:06:26;;;;;;;45.08;8.55;;;;;;;;;;5074979;28;20115;-80
2024/02/20 02:08:52;;;;;;;37.58;5.95;;;;;;;;;;5074421;28;20036;-81
2024/02/20 02:11:18;;;;;;;37.08;6.50;;;;;;;;;;5074804;28;20034;-82
2024/02/20 02:13:44;;;;;;;39.22;5.25;;;;;;;;;;5074943;28;20384;-82
2024/02/20 02:16:10;;;;;;;42.00;7.45;;;;;;;;;;5074632;28;20060;-82
2024/02/20 02:18:36;;;;;;;38.92;6.10;;;;;;;;;;5074670;28;20032;-82
2024/02/20 02:21:03;;;;;;;37.70;6.47;;;;;;;;;;5074339;28;20029;-81
2024/02/20 02:23:29;;;;;;;35.90;6.13;;;;;;;;;;5074146;28;20078;-80
2024/02/20 02:25:55;;;;;;;30.02;6.03;;;;;;;;;;5074218;28;20036;-81
2024/02/20 02:28:21;;;;;;;38.13;7.13;;;;;;;;;;5074288;28;20157;-82
2024/02/20 02:30:47;;;;;;;39.55;6.75;;;;;;;;;;5074263;28;20039;-81
2024/02/20 02:33:13;;;;;;;33.33;5.93;;;;;;;;;;5074212;28;20020;-81
2024/02/20 02:35:39;;;;;;;32.45;5.93;;;;;;;;;;5074987;28;20024;-78
2024/02/20 02:38:05;;;;;;;41.05;7.25;;;;;;;;;;5074338;28;20092;-80
2024/02/20 02:40:31;;;;;;;44.28;6.55;;;;;;;;;;5074114;28;20063;-81
2024/02/20 02:42:57;;;;;;;30.23;5.45;;;;;;;;;;5074480;28;20021;-80
2024/02/20 02:45:24;;;;;;;39.97;7.00;;;;;;;;;;5074045;28;20017;-83
2024/02/20 02:47:50;;;;;;;32.95;5.90;;;;;;;;;;5073741;28;20449;-81
2024/02/20 02:50:16;;;;;;;35.60;6.45;;;;;;;;;;5073980;28;20048;-82
2024/02/20 02:52:43;;;;;;;39.08;6.47;;;;;;;;;;5073919;28;20024;-81
2024/02/20 02:55:09;;;;;;;46.13;7.22;;;;;;;;;;5075033;28;20024;-81
2024/02/20 02:57:35;;;;;;;47.17;8.07;;;;;;;;;;5073772;28;20407;-81
2024/02/20 03:00:03;;;;;;;41.17;6.32;;;;;;;;;;5074163;28;20427;-81
2024/02/20 03:02:29;;;;;;;31.08;6.68;;;;;;;;;;5074068;28;20016;-81
2024/02/20 03:04:59;;;;;;;31.85;5.47;;;;;;;;;;5074255;28;20032;-81
2024/02/20 03:07:25;;;;;;;28.45;5.18;;;;;;;;;;5073512;28;20115;-80
2024/02/20 03:09:51;;;;;;;27.05;7.07;;;;;;;;;;5074055;28;20024;-81
2024/02/20 03:12:17;;;;;;;27.63;5.57;;;;;;;;;;5074627;28;20029;-80
2024/02/20 03:14:43;;;;;;;35.28;5.82;;;;;;;;;;5075797;28;20364;-79
2024/02/20 03:17:09;;;;;;;31.55;5.72;;;;;;;;;;5073632;28;20029;-81
2024/02/20 03:19:36;;;;;;;35.60;5.15;;;;;;;;;;5075278;28;20108;-80
2024/02/20 03:22:02;;;;;;;33.22;6.10;;;;;;;;;;5074468;28;20396;-81
2024/02/20 03:24:28;;;;;;;42.20;8.38;;;;;;;;;;5074056;28;20476;-81
2024/02/20 03:26:55;;;;;;;37.33;6.00;;;;;;;;;;5073478;28;20475;-82
2024/02/20 03:29:22;;;;;;;33.22;5.50;;;;;;;;;;5074811;28;20040;-82
2024/02/20 03:31:48;;;;;;;51.00;8.02;;;;;;;;;;5073765;28;20086;-82
2024/02/20 03:34:14;;;;;;;30.48;6.20;;;;;;;;;;5073321;28;20024;-81
2024/02/20 03:36:41;;;;;;;43.00;7.53;;;;;;;;;;5072873;28;20025;-80
2024/02/20 03:39:07;;;;;;;29.90;5.93;;;;;;;;;;5072556;28;20020;-80
2024/02/20 03:41:33;;;;;;;36.53;6.35;;;;;;;;;;5073042;28;20024;-81
2024/02/20 03:43:59;;;;;;;40.90;6.95;;;;;;;;;;5072600;28;20035;-81
2024/02/20 03:46:25;;;;;;;31.30;6.63;;;;;;;;;;5073639;28;20028;-82
2024/02/20 03:48:51;;;;;;;34.78;5.22;;;;;;;;;;5072713;28;20472;-81
2024/02/20 03:51:20;;;;;;;34.20;5.93;;;;;;;;;;5073092;28;20035;-82
2024/02/20 03:53:46;;;;;;;47.75;6.75;;;;;;;;;;5052738;28;20054;-79
2024/02/20 03:56:13;;;;;;;35.63;6.15;;;;;;;;;;5052737;28;20465;-82
2024/02/20 03:58:39;;;;;;;42.35;7.13;;;;;;;;;;5070084;28;20028;-81
2024/02/20 04:01:08;;;;;;;42.17;6.50;;;;;;;;;;5074307;28;20024;-81
2024/02/20 04:03:34;;;;;;;24.95;7.03;;;;;;;;;;5072778;28;20111;-82
2024/02/20 04:06:00;;;;;;;38.30;7.40;;;;;;;;;;5073687;28;20048;-82
2024/02/20 04:08:27;;;;;;;40.53;6.80;;;;;;;;;;5072711;28;20166;-83
2024/02/20 04:10:53;;;;;;;42.17;7.28;;;;;;;;;;5072620;28;20021;-82
2024/02/20 04:13:19;;;;;;;36.10;5.43;;;;;;;;;;5066637;28;20140;-82
2024/02/20 04:15:48;;;;;;;40.15;7.13;;;;;;;;;;5052497;28;20052;-81
2024/02/20 04:18:14;;;;;;;34.00;6.40;;;;;;;;;;5052351;28;20036;-81
2024/02/20 04:20:40;;;;;;;39.72;7.45;;;;;;;;;;5052183;28;20045;-79
2024/02/20 04:23:07;;;;;;;34.45;6.75;;;;;;;;;;5052205;28;20025;-79
2024/02/20 04:25:33;;;;;;;38.40;7.07;;;;;;;;;;5052505;28;20025;-81
2024/02/20 04:27:59;;;;;;;41.90;9.38;;;;;;;;;;5051991;28;20476;-81
2024/02/20 04:30:26;;;;;;;38.83;8.68;;;;;;;;;;5052055;28;20083;-80
2024/02/20 04:32:52;;;;;;;44.50;8.65;;;;;;;;;;5052272;28;20431;-81
2024/02/20 04:35:18;;;;;;;36.03;7.60;;;;;;;;;;5052283;28;20056;-81
2024/02/20 04:37:45;;;;;;;38.05;7.32;;;;;;;;;;5052521;28;20059;-81
2024/02/20 04:40:11;;;;;;;28.40;7.90;;;;;;;;;;5052012;28;20091;-81
2024/02/20 04:42:37;;;;;;;34.33;6.00;;;;;;;;;;5052243;28;20032;-81
2024/02/20 04:45:05;;;;;;;44.67;9.52;;;;;;;;;;5052319;28;20029;-80
2024/02/20 04:47:31;;;;;;;36.00;9.25;;;;;;;;;;5052280;28;20476;-83
2024/02/20 04:49:57;;;;;;;45.38;9.40;;;;;;;;;;5051939;28;20541;-79
2024/02/20 04:52:24;;;;;;;36.45;8.02;;;;;;;;;;5052547;28;20605;-81
2024/02/20 04:54:51;;;;;;;52.15;10.15;;;;;;;;;;5053188;28;20021;-80
2024/02/20 04:57:17;;;;;;;41.15;10.30;;;;;;;;;;5052295;28;20025;-81
2024/02/20 04:59:43;;;;;;;35.47;9.07;;;;;;;;;;5055004;28;20032;-81
2024/02/20 05:02:09;;;;;;;42.10;9.70;;;;;;;;;;5055871;28;20031;-81
2024/02/20 05:04:35;;;;;;;37.95;9.02;;;;;;;;;;5056273;28;20435;-79
2024/02/20 05:07:03;;;;;;;43.70;9.85;;;;;;;;;;5055265;28;20495;-81
2024/02/20 05:09:29;;;;;;;39.95;9.75;;;;;;;;;;5056239;28;20551;-80
2024/02/20 05:11:55;;;;;;;47.88;10.95;;;;;;;;;;5056243;28;20040;-80
2024/02/20 05:14:21;;;;;;;39.55;10.68;;;;;;;;;;5057406;28;20100;-80
2024/02/20 05:16:47;;;;;;;34.65;10.13;;;;;;;;;;5056043;28;20090;-81
2024/02/20 05:19:13;;;;;;;42.13;10.60;;;;;;;;;;5057163;28;20024;-81
2024/02/20 05:21:39;;;;;;;40.45;10.98;;;;;;;;;;5055947;28;20044;-80
2024/02/20 05:24:05;;;;;;;41.20;11.27;;;;;;;;;;5055333;28;20060;-80
2024/02/20 05:26:32;;;;;;;41.80;10.32;;;;;;;;;;5055824;28;20035;-80
2024/02/20 05:28:58;;;;;;;48.03;9.95;;;;;;;;;;5055564;28;20063;-80
2024/02/20 05:31:30;;;;;;;40.65;9.88;;;;;;;;;;5055483;28;20021;-79
2024/02/20 05:33:57;;;;;;;40.30;9.52;;;;;;;;;;5054915;28;20025;-79
2024/02/20 05:36:25;;;;;;;42.28;8.85;;;;;;;;;;5055370;28;20029;-80
2024/02/20 05:38:52;;;;;;;32.08;9.07;;;;;;;;;;5056566;28;20112;-82
2024/02/20 05:41:19;;;;;;;47.17;10.00;;;;;;;;;;5056988;28;20407;-81
2024/02/20 05:43:45;;;;;;;44.00;9.23;;;;;;;;;;5055204;28;20021;-82
2024/02/20 05:46:11;;;;;;;42.30;10.02;;;;;;;;;;5055134;28;20044;-81
2024/02/20 05:48:38;;;;;;;29.08;10.32;;;;;;;;;;5054471;28;20025;-79
2024/02/20 05:51:04;;;;;;;39.30;9.75;;;;;;;;;;5054875;28;20458;-80
2024/02/20 05:53:30;;;;;;;46.65;12.55;;;;;;;;;;5054917;28;20388;-80
2024/02/20 05:55:56;;;;;;;48.67;11.55;;;;;;;;;;5056203;28;20375;-82
2024/02/20 05:58:22;;;;;;;45.85;12.00;;;;;;;;;;5054394;28;20534;-80
2024/02/20 06:00:48;;;;;;;41.53;13.63;;;;;;;;;;5054328;28;20049;-81
2024/02/20 06:03:14;;;;;;;42.53;12.27;;;;;;;;;;5054231;28;20033;-80
2024/02/20 06:05:40;;;;;;;47.63;14.38;;;;;;;;;;5054384;28;20025;-79
2024/02/20 06:08:07;;;;;;;44.70;11.48;;;;;;;;;;5053855;28;20053;-80
2024/02/20 06:10:33;;;;;;;38.05;11.32;;;;;;;;;;5053700;28;20025;-80
2024/02/20 06:12:59;;;;;;;40.38;9.20;;;;;;;;;;5054572;28;20569;-80
2024/02/20 06:15:25;;;;;;;44.35;10.38;;;;;;;;;;5054153;28;20032;-81
2024/02/20 06:17:51;;;;;;;40.78;10.65;;;;;;;;;;5054514;28;20021;-81
2024/02/20 06:20:17;;;;;;;33.25;10.93;;;;;;;;;;5054049;28;20028;-80
2024/02/20 06:22:43;;;;;;;33.88;10.82;;;;;;;;;;5054463;28;20029;-81
2024/02/20 06:25:09;;;;;;;39.80;10.27;;;;;;;;;;5054581;28;20029;-79
2024/02/20 06:27:38;;;;;;;37.03;9.15;;;;;;;;;;5053890;28;20056;-80
2024/02/20 06:30:04;;;;;;;38.30;10.18;;;;;;;;;;5053642;28;20112;-81
2024/02/20 06:32:30;;;;;;;43.10;10.02;;;;;;;;;;5054078;28;20028;-80
2024/02/20 06:34:56;;;;;;;47.90;11.63;;;;;;;;;;5055148;28;20025;-80
2024/02/20 06:37:23;;;;;;;38.67;9.07;;;;;;;;;;5053779;28;20021;-80
2024/02/20 06:39:49;;;;;;;45.30;10.48;;;;;;;;;;5053728;28;20033;-79
2024/02/20 06:42:15;;;;;;;42.90;9.27;;;;;;;;;;5053993;28;20032;-78
2024/02/20 06:44:41;;;;;;;36.50;9.13;;;;;;;;;;5054148;28;20037;-79
2024/02/20 06:47:07;;;;;;;47.35;10.73;;;;;;;;;;5054115;28;20017;-78
2024/02/20 06:49:33;;;;;;;40.78;9.30;;;;;;;;;;5053630;28;20076;-80
2024/02/20 06:51:59;;;;;;;30.63;9.55;;;;;;;;;;5054051;28;20029;-80
2024/02/20 06:54:25;;;;;;;39.97;10.80;;;;;;;;;;5053713;28;20476;-80
2024/02/20 06:56:51;;;;;;;31.17;9.43;;;;;;;;;;5054961;28;20051;-80
2024/02/20 06:59:17;;;;;;;36.03;9.40;;;;;;;;;;5053173;28;20468;-79
2024/02/20 07:01:43;;;;;;;48.58;10.57;;;;;;;;;;5054386;28;20125;-78
2024/02/20 07:04:13;;;;;;;33.08;9.75;;;;;;;;;;5053111;28;20053;-80
2024/02/20 07:06:39;;;;;;;42.63;10.30;;;;;;;;;;5052605;28;20057;-78
2024/02/20 07:09:05;;;;;;;40.67;10.50;;;;;;;;;;5052098;28;20025;-79
2024/02/20 07:11:31;;;;;;;36.30;10.75;;;;;;;;;;5053615;28;20242;-79
2024/02/20 07:13:57;;;;;;;35.38;11.15;;;;;;;;;;5052562;28;20481;-79
2024/02/20 07:16:23;;;;;;;40.20;9.63;;;;;;;;;;5052063;28;20032;-79
2024/02/20 07:18:49;;;;;;;37.38;10.30;;;;;;;;;;5052338;28;20040;-79
2024/02/20 07:21:15;;;;;;;31.52;10.20;;;;;;;;;;5051128;28;20025;-79
2024/02/20 07:23:42;;;;;;;36.28;11.32;;;;;;;;;;5052238;28;20021;-79
2024/02/20 07:26:08;;;;;;;46.40;12.82;;;;;;;;;;5052153;28;20021;-79
2024/02/20 07:28:36;;;;;;;32.72;10.30;;;;;;;;;;5051793;28;20029;-79
2024/02/20 07:31:02;;;;;;;58.88;14.98;;;;;;;;;;5052046;28;20087;-80
2024/02/20 07:33:29;;;;;;;36.45;11.57;;;;;;;;;;5052156;28;20029;-81
2024/02/20 07:35:55;;;;;;;50.97;12.98;;;;;;;;;;5052340;28;20413;-81
2024/02/20 07:38:21;;;;;;;44.28;13.35;;;;;;;;;;5051955;28;20029;-81
2024/02/20 07:40:47;;;;;;;42.38;12.30;;;;;;;;;;5052098;28;20469;-81
2024/02/20 07:43:13;;;;;;;49.58;12.77;;;;;;;;;;5052318;28;20029;-81
2024/02/20 07:45:39;;;;;;;45.08;13.60;;;;;;;;;;5052342;28;20029;-80
2024/02/20 07:48:07;;;;;;;35.13;10.23;;;;;;;;;;5051717;28;20036;-79
2024/02/20 07:50:33;;;;;;;36.30;9.65;;;;;;;;;;5053304;28;20029;-82
2024/02/20 07:53:00;;;;;;;32.85;9.32;;;;;;;;;;5052714;28;20103;-81
2024/02/20 07:55:26;;;;;;;41.35;10.13;;;;;;;;;;5051466;28;20028;-81
2024/02/20 07:57:52;;;;;;;28.58;9.05;;;;;;;;;;5051494;28;20029;-81
2024/02/20 08:00:18;;;;;;;32.40;9.50;;;;;;;;;;5051010;28;20036;-81
2024/02/20 08:02:44;;;;;;;43.75;10.93;;;;;;;;;;5051506;28;20025;-82
2024/02/20 08:05:13;;;;;;;46.47;12.43;;;;;;;;;;5051232;28;20025;-81
2024/02/20 08:07:40;;;;;;;34.42;10.02;;;;;;;;;;5052719;28;20095;-82
2024/02/20 08:10:08;;;;;;;45.80;12.82;;;;;;;;;;5051200;28;20072;-81
2024/02/20 08:12:34;;;;;;;57.38;18.60;;;;;;;;;;5052608;28;20029;-81
2024/02/20 08:15:00;;;;;;;36.25;9.75;;;;;;;;;;5051302;28;20025;-82
2024/02/20 08:17:26;;;;;;;40.28;12.38;;;;;;;;;;5052202;28;20025;-82
2024/02/20 08:19:53;;;;;;;42.65;10.30;;;;;;;;;;5051117;28;20040;-82
2024/02/20 08:22:19;;;;;;;48.00;12.20;;;;;;;;;;5052386;28;20033;-81
2024/02/20 08:24:45;;;;;;;31.20;10.60;;;;;;;;;;5052064;28;20380;-80
2024/02/20 08:27:11;;;;;;;42.10;12.57;;;;;;;;;;5055898;28;20027;-83
2024/02/20 08:29:37;;;;;;;41.05;13.23;;;;;;;;;;5054710;28;20396;-83
2024/02/20 08:32:03;;;;;;;42.40;11.90;;;;;;;;;;5054204;28;20029;-82
2024/02/20 08:34:29;;;;;;;42.72;12.27;;;;;;;;;;5053602;28;20033;-82
2024/02/20 08:36:56;;;;;;;34.33;11.48;;;;;;;;;;5056133;28;20029;-84
2024/02/20 08:39:25;;;;;;;40.03;10.90;;;;;;;;;;5053954;28;20021;-83
2024/02/20 08:41:51;;;;;;;35.65;11.10;;;;;;;;;;5053509;28;20032;-83
2024/02/20 08:44:17;;;;;;;40.38;11.40;;;;;;;;;;5053948;28;20025;-84
2024/02/20 08:46:43;;;;;;;50.63;13.23;;;;;;;;;;5054303;28;20032;-84
2024/02/20 08:49:09;;;;;;;48.28;12.90;;;;;;;;;;5054466;28;20489;-83
2024/02/20 08:51:35;;;;;;;47.70;11.82;;;;;;;;;;5054600;28;20017;-82
2024/02/20 08:54:01;;;;;;;44.63;12.10;;;;;;;;;;5054573;28;20070;-83
2024/02/20 08:56:27;;;;;;;38.55;11.40;;;;;;;;;;5055459;28;20108;-83
2024/02/20 08:58:53;;;;;;;44.20;10.73;;;;;;;;;;5054681;28;20036;-83
2024/02/20 09:01:20;;;;;;;45.67;12.65;;;;;;;;;;5053456;28;20029;-83
2024/02/20 09:03:46;;;;;;;41.25;12.18;;;;;;;;;;5053782;28;20051;-83
2024/02/20 09:06:12;;;;;;;46.03;11.68;;;;;;;;;;5053730;28;20405;-83
2024/02/20 09:08:38;;;;;;;44.60;12.55;;;;;;;;;;5055497;28;20063;-83
2024/02/20 09:11:04;;;;;;;41.15;9.93;;;;;;;;;;5054187;28;20074;-84
2024/02/20 09:13:34;;;;;;;36.85;10.68;;;;;;;;;;5053775;28;20032;-83
2024/02/20 09:16:00;;;;;;;35.25;11.07;;;;;;;;;;5053575;28;20478;-84
2024/02/20 09:18:27;;;;;;;33.13;8.98;;;;;;;;;;5053329;28;20032;-83
2024/02/20 09:20:54;;;;;;;46.65;9.95;;;;;;;;;;5054165;28;20021;-84
2024/02/20 09:23:20;;;;;;;36.20;9.52;;;;;;;;;;5053043;28;20048;-83
2024/02/20 09:25:46;;;;;;;30.67;11.18;;;;;;;;;;5053459;28;20032;-83
2024/02/20 09:28:13;;;;;;;41.72;11.45;;;;;;;;;;5054461;28;20043;-83
2024/02/20 09:30:39;;;;;;;35.53;9.80;;;;;;;;;;5054871;28;20171;-82
2024/02/20 09:33:06;;;;;;;39.17;10.20;;;;;;;;;;5052751;28;20031;-83
2024/02/20 09:35:32;;;;;;;38.88;9.80;;;;;;;;;;5052764;28;20155;-83
2024/02/20 09:37:58;;;;;;;42.97;9.27;;;;;;;;;;5053279;28;20026;-82
2024/02/20 09:40:24;;;;;;;40.15;10.90;;;;;;;;;;5054236;28;20036;-82
2024/02/20 09:42:50;;;;;;;38.22;9.55;;;;;;;;;;5053316;28;20031;-83
2024/02/20 09:45:18;;;;;;;40.08;12.15;;;;;;;;;;5055529;28;20121;-82
2024/02/20 09:47:45;;;;;;;37.17;10.90;;;;;;;;;;5057294;28;20097;-83
2024/02/20 09:50:12;;;;;;;39.50;11.27;;;;;;;;;;5057414;28;20020;-82
2024/02/20 09:52:39;;;;;;;38.42;11.43;;;;;;;;;;5056515;28;20614;-83
2024/02/20 09:55:06;;;;;;;38.58;10.93;;;;;;;;;;5056958;28;20032;-82
2024/02/20 09:57:33;;;;;;;42.58;12.27;;;;;;;;;;5057674;28;20025;-82
2024/02/20 09:59:59;;;;;;;35.63;11.20;;;;;;;;;;5059517;28;20021;-82
2024/02/20 10:02:28;;;;;;;40.00;10.63;;;;;;;;;;5060853;28;20051;-83
2024/02/20 10:04:54;;;;;;;31.98;10.10;;;;;;;;;;5059869;28;20025;-82
2024/02/20 10:07:20;;;;;;;38.78;9.52;;;;;;;;;;5060728;28;20048;-81
2024/02/20 10:09:46;;;;;;;38.55;9.35;;;;;;;;;;5058012;28;20047;-83
2024/02/20 10:12:23;;;;;;;33.70;10.63;;;;;;;;;;5056477;28;20071;-83
2024/02/20 10:14:49;;;;;;;33.40;8.73;;;;;;;;;;5056569;28;20487;-84
2024/02/20 10:17:16;;;;;;;37.30;9.07;;;;;;;;;;5056193;28;20053;-83
2024/02/20 10:19:43;;;;;;;28.67;10.07;;;;;;;;;;5056924;28;20115;-83
2024/02/20 10:22:09;;;;;;;34.70;8.38;;;;;;;;;;5056917;28;20035;-82
2024/02/20 10:24:36;;;;;;;32.42;9.75;;;;;;;;;;5056026;28;20461;-83
2024/02/20 10:27:02;;;;;;;32.47;8.68;;;;;;;;;;5039628;28;20079;-83
2024/02/20 10:29:30;;;;;;;41.40;10.93;;;;;;;;;;5056500;28;20448;-83
2024/02/20 10:31:56;;;;;;;31.38;8.80;;;;;;;;;;5058150;28;20059;-83
2024/02/20 10:34:22;;;;;;;33.72;9.93;;;;;;;;;;5056783;28;20027;-84
2024/02/20 10:36:48;;;;;;;24.75;6.25;;;;;;;;;;5055364;28;20464;-83
2024/02/20 10:39:14;;;;;;;35.45;10.82;;;;;;;;;;5055520;28;20027;-83
2024/02/20 10:41:41;;;;;;;35.67;9.98;;;;;;;;;;5056366;28;20468;-83
2024/02/20 10:44:07;;;;;;;28.70;9.02;;;;;;;;;;5055544;28;20120;-82
2024/02/20 10:46:38;;;;;;;47.90;11.18;;;;;;;;;;5054909;28;20025;-84
2024/02/20 10:49:13;;;;;;;31.10;9.68;;;;;;;;;;5055239;28;20066;-82
2024/02/20 10:51:41;;;;;;;37.83;11.07;;;;;;;;;;5054775;28;20029;-83
2024/02/20 10:54:08;;;;;;;33.45;9.10;;;;;;;;;;5055023;28;20021;-83
2024/02/20 10:56:35;;;;;;;29.50;9.98;;;;;;;;;;5053533;28;20032;-83
2024/02/20 10:59:01;;;;;;;36.65;10.48;;;;;;;;;;5055281;28;20048;-83
2024/02/20 11:01:29;;;;;;;38.70;11.55;;;;;;;;;;5054610;28;20064;-83
2024/02/20 11:03:55;;;;;;;32.95;10.38;;;;;;;;;;5056378;28;20021;-83
2024/02/20 11:06:22;;;;;;;38.72;11.10;;;;;;;;;;5054117;28;20029;-83
2024/02/20 11:08:48;;;;;;;41.97;10.73;;;;;;;;;;5054569;28;20079;-83
2024/02/20 11:11:14;;;;;;;33.65;11.52;;;;;;;;;;5054888;28;20025;-83
2024/02/20 11:13:44;;;;;;;33.67;9.70;;;;;;;;;;5054345;28;20101;-83
2024/02/20 11:16:14;;;;;;;27.48;9.38;;;;;;;;;;5054719;28;20028;-83
2024/02/20 11:18:56;;;;;;;41.88;9.63;;;;;;;;;;5054659;28;20071;-83
2024/02/20 11:21:29;;;;;;;35.88;10.27;;;;;;;;;;5037938;28;20029;-82
2024/02/20 11:24:09;;;;;;;33.80;10.77;;;;;;;;;;5054579;28;20025;-83
2024/02/20 11:26:36;;;;;;;32.35;10.20;;;;;;;;;;5053988;28;20416;-82
2024/02/20 11:29:02;;;;;;;37.20;10.55;;;;;;;;;;5054146;28;20598;-83
2024/02/20 11:31:29;;;;;;;33.30;10.95;;;;;;;;;;5054076;28;20120;-82
2024/02/20 11:33:59;;;;;;;26.08;9.60;;;;;;;;;;5054117;28;20376;-82
2024/02/20 11:36:25;;;;;;;32.38;9.95;;;;;;;;;;5053784;28;20044;-83
2024/02/20 11:39:01;;;;;;;36.38;10.85;;;;;;;;;;5056611;28;20037;-82
2024/02/20 11:41:27;;;;;;;26.83;7.70;;;;;;;;;;5056072;28;20036;-82
2024/02/20 11:44:01;;;;;;;34.55;10.25;;;;;;;;;;5056556;28;20036;-84
2024/02/20 11:46:27;;;;;;;32.30;9.60;;;;;;;;;;5056194;28;20094;-82
2024/02/20 11:48:53;;;;;;;26.40;9.30;;;;;;;;;;5056440;28;20032;-82
2024/02/20 11:51:20;;;;;;;27.15;8.95;;;;;;;;;;5056563;28;20124;-82
2024/02/20 11:53:47;;;;;;;33.90;9.45;;;;;;;;;;5056402;28;20496;-82
2024/02/20 11:56:14;;;;;;;25.15;8.57;;;;;;;;;;5056335;28;20025;-83
2024/02/20 11:58:40;;;;;;;31.65;8.65;;;;;;;;;;5056235;28;20036;-83
2024/02/20 12:01:07;;;;;;;33.13;11.27;;;;;;;;;;5056210;28;20029;-83
2024/02/20 12:03:34;;;;;;;30.48;8.50;;;;;;;;;;5056099;28;20071;-86
2024/02/20 12:06:04;;;;;;;29.75;8.18;;;;;;;;;;5056495;28;20029;-85
2024/02/20 12:08:41;;;;;;;26.98;10.55;;;;;;;;;;5056079;28;20405;-85
2024/02/20 12:11:07;;;;;;;39.90;10.52;;;;;;;;;;5058026;28;20366;-85
2024/02/20 12:13:33;;;;;;;32.72;9.75;;;;;;;;;;5056404;28;20032;-84
2024/02/20 12:16:00;;;;;;;34.33;9.90;;;;;;;;;;5060382;28;20047;-81
2024/02/20 12:18:27;;;;;;;34.63;9.05;;;;;;;;;;5066465;28;20040;-82
2024/02/20 12:20:53;;;;;;;37.72;9.27;;;;;;;;;;5066432;28;20028;-82
2024/02/20 12:23:19;;;;;;;35.53;8.93;;;;;;;;;;5062514;28;20071;-83
2024/02/20 12:25:46;;;;;;;27.65;9.55;;;;;;;;;;5058263;28;20017;-84
2024/02/20 12:28:12;;;;;;;28.70;9.75;;;;;;;;;;5055738;28;20086;-84
2024/02/20 12:30:39;;;;;;;28.30;9.52;;;;;;;;;;5055763;28;20036;-84
2024/02/20 12:33:06;;;;;;;28.42;8.77;;;;;;;;;;5055534;28;20488;-84
2024/02/20 12:35:32;;;;;;;31.92;9.68;;;;;;;;;;5056025;28;20120;-84
2024/02/20 12:37:58;;;;;;;31.08;10.50;;;;;;;;;;5056300;28;20032;-84
2024/02/20 12:40:25;;;;;;;31.63;9.35;;;;;;;;;;5052496;28;20029;-84
2024/02/20 12:42:51;;;;;;;25.80;9.70;;;;;;;;;;5052438;28;20028;-84
2024/02/20 12:45:17;;;;;;;25.38;9.30;;;;;;;;;;5052322;28;20036;-84
2024/02/20 12:47:43;;;;;;;28.65;8.85;;;;;;;;;;5052392;28;20098;-84
2024/02/20 12:50:09;;;;;;;28.65;9.25;;;;;;;;;;5052542;28;20025;-85
2024/02/20 12:52:37;;;;;;;27.13;9.98;;;;;;;;;;5053982;28;20457;-85
2024/02/20 12:55:03;;;;;;;32.20;8.77;;;;;;;;;;5052304;28;20111;-84
2024/02/20 12:57:29;;;;;;;38.97;9.73;;;;;;;;;;5051590;28;20513;-84
2024/02/20 12:59:55;;;;;;;29.85;8.52;;;;;;;;;;5053076;28;20017;-84
2024/02/20 13:02:21;;;;;;;27.13;10.32;;;;;;;;;;5052356;28;20027;-85
2024/02/20 13:04:47;;;;;;;31.27;8.90;;;;;;;;;;5052052;28;20029;-85
2024/02/20 13:07:14;;;;;;;28.20;7.82;;;;;;;;;;5052159;28;20044;-84
2024/02/20 13:09:40;;;;;;;33.30;8.23;;;;;;;;;;5051575;28;20033;-84
2024/02/20 13:12:08;;;;;;;26.55;8.10;;;;;;;;;;5052603;28;20472;-84
2024/02/20 13:14:34;;;;;;;30.45;8.93;;;;;;;;;;5051819;28;20104;-84
2024/02/20 13:17:00;;;;;;;22.98;6.10;;;;;;;;;;5035279;28;20029;-84
2024/02/20 13:19:27;;;;;;;34.63;8.90;;;;;;;;;;5053005;28;20556;-84
2024/02/20 13:21:53;;;;;;;31.05;8.93;;;;;;;;;;5056264;28;20029;-85
2024/02/20 13:24:19;;;;;;;30.20;8.43;;;;;;;;;;5055901;28;20036;-85
2024/02/20 13:26:45;;;;;;;30.30;8.32;;;;;;;;;;5055373;28;20492;-84
2024/02/20 13:29:11;;;;;;;31.65;9.70;;;;;;;;;;5056457;28;20088;-83
2024/02/20 13:31:38;;;;;;;31.27;10.00;;;;;;;;;;5055844;28;20025;-84
2024/02/20 13:34:05;;;;;;;34.83;8.88;;;;;;;;;;5055788;28;20468;-84
2024/02/20 13:36:31;;;;;;;28.80;8.32;;;;;;;;;;5055337;28;20365;-85
2024/02/20 13:38:57;;;;;;;37.08;9.80;;;;;;;;;;5056626;28;20021;-84
2024/02/20 13:41:26;;;;;;;31.67;9.13;;;;;;;;;;5055280;28;20048;-83
2024/02/20 13:43:53;;;;;;;22.45;8.05;;;;;;;;;;5055805;28;20021;-84
2024/02/20 13:46:19;;;;;;;22.65;7.82;;;;;;;;;;5056771;28;20337;-83
2024/02/20 13:48:45;;;;;;;28.80;7.78;;;;;;;;;;5055006;28;20033;-83
2024/02/20 13:51:11;;;;;;;32.47;8.45;;;;;;;;;;5055297;28;20025;-83
2024/02/20 13:53:37;;;;;;;33.70;9.30;;;;;;;;;;5055179;28;20028;-83
2024/02/20 13:56:03;;;;;;;27.70;7.55;;;;;;;;;;5056759;28;20635;-85
2024/02/20 13:58:29;;;;;;;25.15;8.32;;;;;;;;;;5056619;28;20450;-84
2024/02/20 14:00:55;;;;;;;26.05;7.70;;;;;;;;;;5055453;28;20072;-85
2024/02/20 14:03:24;;;;;;;31.55;8.60;;;;;;;;;;5055548;28;20370;-83
2024/02/20 14:05:50;;;;;;;25.50;7.20;;;;;;;;;;5055213;28;20053;-83
2024/02/20 14:08:16;;;;;;;30.08;8.52;;;;;;;;;;5055595;28;20053;-83
2024/02/20 14:10:44;;;;;;;29.27;7.00;;;;;;;;;;5054984;28;20067;-83
2024/02/20 14:13:10;;;;;;;38.55;8.93;;;;;;;;;;5056096;28;20025;-84
2024/02/20 14:15:37;;;;;;;29.35;7.53;;;;;;;;;;5055184;28;20017;-85
2024/02/20 14:18:03;;;;;;;27.10;6.95;;;;;;;;;;5055760;28;20029;-85
2024/02/20 14:20:30;;;;;;;32.92;8.00;;;;;;;;;;5055152;28;20155;-85
2024/02/20 14:22:56;;;;;;;34.35;8.20;;;;;;;;;;5056621;28;20028;-83